Lupton, AZ

3:59 AM MDT on May 30, 2015 (GMT -0600)
Pinon Mesa Networks | | Change Station
CLOSE
Current Station
Personal Weather Station
Location: Vanderwagen, NM
Elevation: 7300 ft
Nearby Weather Stations

Elev 7300 ft 35.25 °N, 108.76 °W | Updated 11 minutes ago

Clear
Clear
53.0 °F
Feels Like 53.0 °F
N
2.6
Wind Variable Wind from North

Today
High -- | Low -- °F
--% Chance of Precip.
Yesterday
High -- | Low -- °F
Precip. -- in
6:03 AM 8:24 PM
Waxing Gibbous, 89% visible
Pressure 29.92 in
Visibility 10.0 miles
Clouds Clear
Dew Point 28 °F
Humidity 38%
Rainfall -999.00 in
Snow Depth Not available.
UV 0 out of 12
Pollen 6.00 out of 12
Air Quality Not available.
Flu Activity Local Activity
METAR KGUP 300953Z AUTO 06005KT 10SM CLR 07/M02 A3027 RMK AO2 SLP132 T00721017

More Conditions Fewer Conditions

Pressure 29.92 in
Visibility 10.0 miles
Clouds Clear
Dew Point 28 °F
Humidity 38%
Rainfall -999.00 in
Snow Depth Not available.
UV 0 out of 12
Pollen 6.00 out of 12
Air Quality Not available.
Flu Activity Local Activity
METAR KGUP 300953Z AUTO 06005KT 10SM CLR 07/M02 A3027 RMK AO2 SLP132 T00721017

More Conditions Fewer Conditions

10-Day Weather Forecast

Almanac

Astronomy

May. 30, 2015 Rise Set
Actual Time
Civil Twilight
Nautical Twilight
Astronomical Twilight
Moon
Length of Visible Light
Length of Day
Tomorrow will be .
, % of the Moon is Illuminated

Today's Extremes

State Highs State Lows

Community

WunderPhotos

Upload Photos

1,825,476 photos uploaded!

WunderBlogs® & News

Nearby

Air Quality

  Air Quality AQ Index Pollutant
Not available.

Snow Depth

Station Depth Elevation

Earthquake Activity

City Distance Mag. Time & Date
Minimum magnitude displayed is 2.5.

Coastal Water Temperatures

Place Temperature

Stations

Nearby Weather Stations

Station Location Temp. Windchill Dew Point Humidity Wind Precip. Elev Updated Type